Clinton, South Carolina
Current Conditions -  °F | °C
As of 7:15 AM on Monday 26 Jan 2015 (Local Time) from KLUX Reporting Station
Clear Clear  
Wind Chill: 35°   Ceiling: Unl
Heat Index: 41°   Visibility: 10mi
Dew Point: 41°   Wind: 9mph
Humidity: 100%   Direction: 240°WSW
Pressure: 29.66"   Gusts: NA
Location:  34.47°N, 81.88°W
Report Text: KLUX 261215Z AUTO 24008KT 10SM CLR 05/05 A2966 RMK AO2
Loading
Personal Weather Stations






























Interactive Weather Map New forecast layout! Learn more

10-Day Weather Forecast

Advertisements
Track Severe Weather on mobile